Hovedside
METAR-TAF:

METAR-TAF

Lufthavner :

Léopold Sédar Senghor internasjonale lufthavn

Dakar, Senegal

breddegrad: 14-44N, lengdegrad: 017-30W, høyde over havet: 27 m

Gjeldene værobservasjon

Denne rapporten ble laget for 1 time og 1 minutter siden, klokken 03:00 UTC
Vind 2 kt fra Nord-nordvest
Temperatur 28°C
Luftfuktighet 84%
Trykk 1013 hPa
Sikt: 8000 m
Få skyer i en høyde av 1300 ft

METAR: GOOY 200300Z 34002KT 8000 FEW013 28/25 Q1013

Tid: 04:01 (04:01 UTC)

Varsel

Denne rapporten ble laget for 4 timer og 31 minutter siden, klokken 23:30 UTC
Varsel gyldig fra 20. klokken 00 UTC til 21. klokken 06 UTC
Vind 5 kt fra Nordvest
Sikt 10 km eller mer
Spredte skyer i en høyde av 1400 ft

TAF: GOOY 192330Z 2000/2106 32005KT 9999 SCT014

Værobservasjoner og værvarsel for over 4000 flyplasser (METAR- og TAF-rapporter).

Tilgjengelige stasjoner er representert av de røde og gule prikkene på kartet.

Hold musepekeren over prikken for å se navnet på stasjonen.

Klikk så for å se værobservasjoner og -varsler.

For å forandre kartet kan du klikke på den grønne knappen med svart kryss for å zoome inn, på den grønne knappen med strek for å zoome ut, eller på de grønne pilene for å se tilstøtende kart.


METAR-TAF: